Time;durP1;ratioP1;P1;durP2;ratioP2;P2;SDS_P1;SDS_P2;PMS_P1;PMS_P2;Temp;Humidity;BMP_temperature;BMP_pressure;BME280_temperature;BME280_humidity;BME280_pressure;Samples;Min_cycle;Max_cycle;Signal;HPM_P1;HPM_P2
2023/09/01 00:00:03;;;;;;;6.38;2.08;;;13.40;99.90;;;;;;6184405;23;20009;-86
2023/09/01 00:02:28;;;;;;;9.75;4.70;;;13.20;99.90;;;;;;6133915;23;20013;-86
2023/09/01 00:04:55;;;;;;;8.65;3.88;;;13.30;99.90;;;;;;6158080;23;20328;-86
2023/09/01 00:07:21;;;;;;;8.57;3.70;;;13.30;99.90;;;;;;6157919;23;20012;-86
2023/09/01 00:09:46;;;;;;;7.78;3.25;;;13.40;99.90;;;;;;6158427;23;20410;-87
2023/09/01 00:12:12;;;;;;;8.15;2.30;;;13.30;99.90;;;;;;6157839;23;20013;-87
2023/09/01 00:14:38;;;;;;;5.45;1.95;;;13.20;99.90;;;;;;6158178;23;20017;-86
2023/09/01 00:17:03;;;;;;;7.85;2.42;;;13.20;99.90;;;;;;6158427;23;20009;-87
2023/09/01 00:19:29;;;;;;;12.15;5.47;;;13.10;99.90;;;;;;6157438;23;20451;-87
2023/09/01 00:21:54;;;;;;;6.22;2.47;;;13.20;99.90;;;;;;6158116;23;20454;-87
2023/09/01 00:24:20;;;;;;;8.20;2.63;;;13.20;99.90;;;;;;6133699;23;20021;-86
2023/09/01 00:26:46;;;;;;;9.88;4.88;;;13.10;99.90;;;;;;6157604;23;20084;-86
2023/09/01 00:29:11;;;;;;;6.95;2.53;;;13.10;99.90;;;;;;6133458;23;20020;-87
2023/09/01 00:31:37;;;;;;;7.35;2.67;;;13.10;99.90;;;;;;6158250;23;20040;-87
2023/09/01 00:34:03;;;;;;;8.88;2.83;;;13.10;99.90;;;;;;6157615;23;20017;-86
2023/09/01 00:36:29;;;;;;;11.80;5.90;;;13.10;99.90;;;;;;6157968;23;20009;-87
2023/09/01 00:38:54;;;;;;;11.05;6.15;;;13.10;99.90;;;;;;6157648;23;20454;-86
2023/09/01 00:41:20;;;;;;;9.27;3.50;;;13.20;99.90;;;;;;6158095;23;20015;-86
2023/09/01 00:43:45;;;;;;;8.57;3.42;;;13.10;99.90;;;;;;6158266;23;20013;-87
2023/09/01 00:46:11;;;;;;;12.40;6.15;;;13.10;99.90;;;;;;6133090;23;20397;-86
2023/09/01 00:48:40;;;;;;;7.78;2.83;;;13.10;99.90;;;;;;6158460;23;20016;-87
2023/09/01 00:51:06;;;;;;;6.72;3.17;;;13.10;99.90;;;;;;6158333;23;20020;-86
2023/09/01 00:53:33;;;;;;;9.32;2.90;;;13.10;99.90;;;;;;6133162;23;20459;-86
2023/09/01 00:55:59;;;;;;;10.93;5.60;;;13.10;99.90;;;;;;6156879;23;20016;-86
2023/09/01 00:58:26;;;;;;;8.55;3.08;;;13.10;99.90;;;;;;6132000;23;20088;-86
2023/09/01 01:00:52;;;;;;;9.90;4.28;;;13.10;99.90;;;;;;6156645;23;20386;-86
2023/09/01 01:03:19;;;;;;;11.27;4.05;;;13.10;99.90;;;;;;6157641;23;20015;-86
2023/09/01 01:06:13;;;;;;;8.55;2.65;;;13.00;99.90;;;;;;6157950;23;20463;-87
2023/09/01 01:09:09;;;;;;;8.63;3.50;;;13.00;99.90;;;;;;6133032;23;20020;-87
2023/09/01 01:11:48;;;;;;;9.52;6.10;;;13.00;99.90;;;;;;6121370;23;20537;-86
2023/09/01 01:14:28;;;;;;;8.85;3.03;;;13.10;99.90;;;;;;6157015;23;20648;-86
2023/09/01 01:16:55;;;;;;;10.70;5.57;;;13.00;99.90;;;;;;6133289;23;20020;-86
2023/09/01 01:19:39;;;;;;;11.80;3.47;;;13.00;99.90;;;;;;6132954;23;20009;-86
2023/09/01 01:22:07;;;;;;;6.70;2.70;;;13.00;99.90;;;;;;6157332;23;20751;-86
2023/09/01 01:24:33;;;;;;;8.32;2.20;;;12.90;99.90;;;;;;6157518;23;20013;-86
2023/09/01 01:26:59;;;;;;;6.65;2.25;;;12.90;99.90;;;;;;6157699;23;20013;-87
2023/09/01 01:29:26;;;;;;;6.88;2.58;;;12.90;99.90;;;;;;6157521;23;20067;-86
2023/09/01 01:31:53;;;;;;;8.10;4.75;;;12.90;99.90;;;;;;6157890;23;20459;-87
2023/09/01 01:34:35;;;;;;;9.65;5.00;;;12.90;99.90;;;;;;6132832;23;20092;-86
2023/09/01 01:37:22;;;;;;;8.27;3.00;;;13.00;99.90;;;;;;6157537;23;20005;-86
2023/09/01 01:39:51;;;;;;;7.07;2.88;;;12.90;99.90;;;;;;6157377;23;20016;-87
2023/09/01 01:42:18;;;;;;;10.80;5.45;;;12.90;99.90;;;;;;6132341;23;20016;-87
2023/09/01 01:44:50;;;;;;;7.38;2.70;;;12.90;99.90;;;;;;6157177;23;20087;-86
2023/09/01 01:47:17;;;;;;;11.23;5.10;;;12.90;99.90;;;;;;6132276;23;20019;-86
2023/09/01 01:49:45;;;;;;;6.82;2.63;;;13.00;99.90;;;;;;6156793;23;20459;-86
2023/09/01 01:52:11;;;;;;;9.20;5.65;;;12.90;99.90;;;;;;6157537;23;20064;-86
2023/09/01 01:54:36;;;;;;;8.18;2.85;;;12.90;99.90;;;;;;6157435;23;20013;-86
2023/09/01 01:57:02;;;;;;;8.25;3.30;;;12.90;99.90;;;;;;6132996;23;20005;-86
2023/09/01 01:59:28;;;;;;;9.00;3.67;;;12.90;99.90;;;;;;6156956;23;20621;-86
2023/09/01 02:01:53;;;;;;;12.07;6.28;;;12.90;99.90;;;;;;6132660;23;20013;-86
2023/09/01 02:04:19;;;;;;;10.50;6.00;;;13.00;99.90;;;;;;6132648;23;20011;-86
2023/09/01 02:06:44;;;;;;;8.63;2.72;;;13.00;99.90;;;;;;6157609;23;20451;-86
2023/09/01 02:09:10;;;;;;;8.65;3.10;;;13.00;99.90;;;;;;6159136;23;20020;-86
2023/09/01 02:11:36;;;;;;;7.00;3.03;;;12.90;99.90;;;;;;6135077;23;20040;-86
2023/09/01 02:14:02;;;;;;;7.10;2.58;;;12.90;99.90;;;;;;6159351;23;20040;-86
2023/09/01 02:16:28;;;;;;;10.30;3.45;;;12.90;99.90;;;;;;6159749;23;20017;-86
2023/09/01 02:18:54;;;;;;;9.38;3.25;;;12.80;99.90;;;;;;6134404;23;20473;-86
2023/09/01 02:21:22;;;;;;;11.25;6.30;;;12.80;99.90;;;;;;6134040;23;20037;-85
2023/09/01 02:23:48;;;;;;;10.43;3.10;;;12.90;99.90;;;;;;6159023;23;20012;-86
2023/09/01 02:26:18;;;;;;;12.43;3.38;;;12.90;99.90;;;;;;6158889;23;20020;-86
2023/09/01 02:28:44;;;;;;;9.27;5.60;;;12.90;99.90;;;;;;6159187;23;20521;-86
2023/09/01 02:31:09;;;;;;;7.00;2.80;;;12.90;99.90;;;;;;6159542;23;20016;-87
2023/09/01 02:33:35;;;;;;;7.10;2.55;;;12.90;99.90;;;;;;6185726;23;20017;-86
2023/09/01 02:36:26;;;;;;;6.65;2.65;;;12.90;99.90;;;;;;6159251;23;20489;-86
2023/09/01 02:38:52;;;;;;;8.82;2.75;;;12.80;99.90;;;;;;6133443;23;20015;-86
2023/09/01 02:41:19;;;;;;;10.95;5.53;;;12.80;99.90;;;;;;6134723;23;20013;-86
2023/09/01 02:43:45;;;;;;;8.70;3.00;;;12.90;99.90;;;;;;6159571;23;20016;-86
2023/09/01 02:46:12;;;;;;;6.43;3.03;;;12.90;99.90;;;;;;6159108;23;20025;-86
2023/09/01 02:48:37;;;;;;;9.63;3.28;;;12.80;99.90;;;;;;6134174;23;20015;-86
2023/09/01 02:51:04;;;;;;;10.85;6.05;;;12.80;99.90;;;;;;6159140;23;20092;-86
2023/09/01 02:53:31;;;;;;;10.07;3.30;;;12.90;99.90;;;;;;6134532;23;20092;-86
2023/09/01 02:55:57;;;;;;;8.85;2.95;;;12.90;99.90;;;;;;6134773;23;20024;-86
2023/09/01 02:58:23;;;;;;;10.40;5.97;;;12.80;99.90;;;;;;6157844;23;20013;-86
2023/09/01 03:00:49;;;;;;;8.18;2.92;;;12.90;99.90;;;;;;6133542;23;20236;-86
2023/09/01 03:03:14;;;;;;;9.60;3.35;;;12.90;99.90;;;;;;6158948;23;20654;-86
2023/09/01 03:05:40;;;;;;;7.68;3.22;;;12.80;99.90;;;;;;6158947;23;20064;-86
2023/09/01 03:08:06;;;;;;;8.85;5.60;;;12.80;99.90;;;;;;6158696;23;20446;-86
2023/09/01 03:10:32;;;;;;;7.28;3.42;;;12.80;99.90;;;;;;6158112;23;20059;-86
2023/09/01 03:12:58;;;;;;;7.60;2.95;;;12.80;99.90;;;;;;6133759;23;20092;-86
2023/09/01 03:15:23;;;;;;;10.60;4.38;;;12.80;99.90;;;;;;6158152;23;20455;-86
2023/09/01 03:17:49;;;;;;;10.88;6.10;;;12.80;99.90;;;;;;6133708;23;20020;-86
2023/09/01 03:20:16;;;;;;;8.18;3.22;;;12.80;99.90;;;;;;6158799;23;20005;-86
2023/09/01 03:22:41;;;;;;;6.68;2.90;;;12.80;99.90;;;;;;6158697;23;20013;-86
2023/09/01 03:25:10;;;;;;;11.60;6.38;;;12.70;99.90;;;;;;6159035;23;20035;-86
2023/09/01 03:27:39;;;;;;;11.88;3.83;;;12.80;99.90;;;;;;6134448;23;20389;-86
2023/09/01 03:30:07;;;;;;;9.82;3.28;;;12.70;99.90;;;;;;6133925;23;20021;-86
2023/09/01 03:32:33;;;;;;;9.13;3.15;;;12.70;99.90;;;;;;6185535;23;20016;-86
2023/09/01 03:34:59;;;;;;;8.52;3.90;;;12.60;99.90;;;;;;6158222;23;20036;-86
2023/09/01 03:37:25;;;;;;;10.00;5.88;;;12.60;99.90;;;;;;6158265;23;20466;-86
2023/09/01 03:39:51;;;;;;;7.30;2.80;;;12.70;99.90;;;;;;6158388;23;20025;-86
2023/09/01 03:42:17;;;;;;;6.97;2.88;;;12.70;99.90;;;;;;6134481;23;20005;-86
2023/09/01 03:44:43;;;;;;;6.93;3.08;;;12.60;99.90;;;;;;6158812;23;20405;-86
2023/09/01 03:47:09;;;;;;;10.32;6.40;;;12.60;99.90;;;;;;6158559;23;20009;-86
2023/09/01 03:49:36;;;;;;;11.27;6.80;;;12.60;99.90;;;;;;6158168;23;20355;-87
2023/09/01 03:52:01;;;;;;;10.93;6.95;;;12.70;99.90;;;;;;6158298;23;20021;-86
2023/09/01 03:54:27;;;;;;;7.53;3.47;;;12.70;99.90;;;;;;6158389;23;20036;-86
2023/09/01 03:56:53;;;;;;;9.45;3.85;;;12.70;99.90;;;;;;6158122;23;20013;-86
2023/09/01 03:59:19;;;;;;;11.70;3.78;;;12.60;99.90;;;;;;6133294;23;20013;-86
2023/09/01 04:01:45;;;;;;;8.30;3.40;;;12.60;99.90;;;;;;6158353;23;20009;-86
2023/09/01 04:04:11;;;;;;;8.00;3.22;;;12.50;99.90;;;;;;6157646;23;20013;-86
2023/09/01 04:06:38;;;;;;;6.88;3.05;;;12.50;99.90;;;;;;6130281;23;20017;-84
2023/09/01 04:09:04;;;;;;;9.40;6.47;;;12.50;99.90;;;;;;6155005;23;20005;-85
2023/09/01 04:11:30;;;;;;;13.30;7.20;;;12.50;99.90;;;;;;6158135;23;20109;-85
2023/09/01 04:13:56;;;;;;;8.45;3.25;;;12.60;99.90;;;;;;6158382;23;20474;-85
2023/09/01 04:16:22;;;;;;;8.60;3.53;;;12.50;99.90;;;;;;6158062;23;20021;-85
2023/09/01 04:18:48;;;;;;;7.53;3.38;;;12.50;99.90;;;;;;6158114;23;20013;-86
2023/09/01 04:21:13;;;;;;;9.73;3.22;;;12.40;99.90;;;;;;6157773;23;20013;-86
2023/09/01 04:23:40;;;;;;;7.28;2.92;;;12.40;99.90;;;;;;6157217;23;20366;-86
2023/09/01 04:26:06;;;;;;;11.30;6.70;;;12.40;99.90;;;;;;6132203;23;20354;-86
2023/09/01 04:28:32;;;;;;;11.95;4.13;;;12.40;99.90;;;;;;6133312;23;20072;-86
2023/09/01 04:31:02;;;;;;;8.07;3.63;;;12.50;99.90;;;;;;6156785;23;20017;-86
2023/09/01 04:33:27;;;;;;;9.00;3.70;;;12.40;99.90;;;;;;6133122;23;20017;-86
2023/09/01 04:36:00;;;;;;;8.85;3.60;;;12.40;99.90;;;;;;6132993;23;20020;-87
2023/09/01 04:38:26;;;;;;;8.45;3.58;;;12.30;99.90;;;;;;6132205;23;20075;-87
2023/09/01 04:40:56;;;;;;;8.27;3.67;;;12.30;99.90;;;;;;6156892;23;20398;-86
2023/09/01 04:43:25;;;;;;;10.85;6.43;;;12.30;99.90;;;;;;6156939;23;20550;-86
2023/09/01 04:45:54;;;;;;;7.05;2.83;;;12.40;99.90;;;;;;6156894;23;20028;-86
2023/09/01 04:48:20;;;;;;;9.35;3.80;;;12.40;99.90;;;;;;6156204;23;20012;-86
2023/09/01 04:50:47;;;;;;;7.60;3.22;;;12.30;99.90;;;;;;6156874;23;20048;-86
2023/09/01 04:53:12;;;;;;;12.07;7.20;;;12.30;99.90;;;;;;6157332;23;20023;-86
2023/09/01 04:55:38;;;;;;;8.85;4.18;;;12.30;99.90;;;;;;6133033;23;20017;-86
2023/09/01 04:58:04;;;;;;;8.63;3.63;;;12.30;99.90;;;;;;6157039;23;20021;-86
2023/09/01 05:00:29;;;;;;;8.18;4.00;;;12.30;99.90;;;;;;6157384;23;20009;-86
2023/09/01 05:02:55;;;;;;;8.95;3.92;;;12.30;99.90;;;;;;6157766;23;20009;-86
2023/09/01 05:05:21;;;;;;;8.70;3.60;;;12.30;99.90;;;;;;6157612;23;20017;-86
2023/09/01 05:07:47;;;;;;;8.52;3.92;;;12.30;99.90;;;;;;6157149;23;20092;-86
2023/09/01 05:10:12;;;;;;;13.18;7.70;;;12.30;99.90;;;;;;6157199;23;20017;-86
2023/09/01 05:12:38;;;;;;;12.77;8.25;;;12.40;99.90;;;;;;6157284;23;20008;-85
2023/09/01 05:15:05;;;;;;;11.55;8.02;;;12.40;99.90;;;;;;6156988;23;20017;-86
2023/09/01 05:17:31;;;;;;;7.63;3.63;;;12.50;99.90;;;;;;6157858;23;20082;-85
2023/09/01 05:19:57;;;;;;;11.35;4.85;;;12.50;99.90;;;;;;6133288;23;20454;-85
2023/09/01 05:22:24;;;;;;;8.85;3.83;;;12.40;99.90;;;;;;6157573;23;20099;-85
2023/09/01 05:24:50;;;;;;;9.00;4.05;;;12.40;99.90;;;;;;6157099;23;20457;-85
2023/09/01 05:27:19;;;;;;;8.10;3.25;;;12.40;99.90;;;;;;6157597;23;20020;-85
2023/09/01 05:29:50;;;;;;;7.65;3.15;;;12.40;99.90;;;;;;6157003;23;20455;-85
2023/09/01 05:32:16;;;;;;;8.65;3.85;;;12.40;99.90;;;;;;6158069;23;20013;-85
2023/09/01 05:34:42;;;;;;;9.98;6.32;;;12.30;99.90;;;;;;6157387;23;20478;-85
2023/09/01 05:37:09;;;;;;;8.82;3.95;;;12.40;99.90;;;;;;6157434;23;20020;-85
2023/09/01 05:39:35;;;;;;;11.60;3.95;;;12.40;99.90;;;;;;6131755;23;20037;-85
2023/09/01 05:42:01;;;;;;;12.13;3.95;;;12.30;99.90;;;;;;6132321;23;20086;-85
2023/09/01 05:44:26;;;;;;;7.75;3.63;;;12.40;99.90;;;;;;6183550;23;20017;-86
2023/09/01 05:46:52;;;;;;;9.23;4.35;;;12.40;99.90;;;;;;6156964;23;20013;-85
2023/09/01 05:49:18;;;;;;;9.10;3.83;;;12.40;99.90;;;;;;6157444;23;20096;-85
2023/09/01 05:51:43;;;;;;;10.90;7.80;;;12.50;99.90;;;;;;6133071;23;20097;-86
2023/09/01 05:54:09;;;;;;;9.93;4.25;;;12.50;99.90;;;;;;6133143;23;20092;-87
2023/09/01 05:56:34;;;;;;;13.10;8.50;;;12.50;99.90;;;;;;6157305;23;20048;-86
2023/09/01 05:59:00;;;;;;;8.45;4.15;;;12.60;99.90;;;;;;6156722;23;20017;-86
2023/09/01 06:01:26;;;;;;;10.57;3.70;;;12.60;99.90;;;;;;6156730;23;20009;-86
2023/09/01 06:03:51;;;;;;;11.02;4.57;;;12.60;99.90;;;;;;6157314;23;20064;-86
2023/09/01 06:06:17;;;;;;;14.07;10.52;;;12.60;99.90;;;;;;6157103;23;20017;-86
2023/09/01 06:08:42;;;;;;;12.02;5.32;;;12.70;99.90;;;;;;6132468;23;20489;-86
2023/09/01 06:11:09;;;;;;;11.23;5.53;;;12.80;99.90;;;;;;6132307;23;20084;-86
2023/09/01 06:13:35;;;;;;;10.32;5.22;;;12.80;99.90;;;;;;6132309;23;20431;-86
2023/09/01 06:16:04;;;;;;;11.75;6.15;;;12.80;99.90;;;;;;6132593;23;20013;-86
2023/09/01 06:18:30;;;;;;;14.65;11.55;;;12.90;99.90;;;;;;6156751;23;20040;-86
2023/09/01 06:20:56;;;;;;;10.65;5.97;;;13.00;99.90;;;;;;6156981;23;20459;-86
2023/09/01 06:23:22;;;;;;;10.35;5.70;;;13.00;99.90;;;;;;6132800;23;20092;-86
2023/09/01 06:25:47;;;;;;;15.13;5.85;;;13.00;99.90;;;;;;6156996;23;20111;-86
2023/09/01 06:28:13;;;;;;;13.82;12.32;;;13.10;99.90;;;;;;6131744;23;20518;-86
2023/09/01 06:30:42;;;;;;;11.00;5.70;;;13.20;99.90;;;;;;6156674;23;20096;-86
2023/09/01 06:33:09;;;;;;;12.40;6.93;;;13.30;99.90;;;;;;6157390;23;20431;-86
2023/09/01 06:35:35;;;;;;;12.82;6.35;;;13.30;99.90;;;;;;6131956;23;20021;-86
2023/09/01 06:38:04;;;;;;;15.23;13.15;;;13.30;99.90;;;;;;6131847;23;20013;-86
2023/09/01 06:40:30;;;;;;;13.23;6.28;;;13.40;99.90;;;;;;6130923;23;20332;-87
2023/09/01 06:42:56;;;;;;;13.25;6.43;;;13.50;99.90;;;;;;6132070;23;20017;-87
2023/09/01 06:45:22;;;;;;;15.77;7.18;;;13.50;99.90;;;;;;6156420;23;20117;-86
2023/09/01 06:47:52;;;;;;;15.23;13.60;;;13.50;99.90;;;;;;6156113;23;20100;-87
2023/09/01 06:50:18;;;;;;;15.18;13.57;;;13.60;99.90;;;;;;6156812;23;20015;-86
2023/09/01 06:52:45;;;;;;;15.35;7.03;;;13.70;99.90;;;;;;6156758;23;20521;-86
2023/09/01 06:55:12;;;;;;;14.38;7.38;;;13.70;99.90;;;;;;6158596;23;20463;-87
2023/09/01 06:57:38;;;;;;;17.50;7.40;;;13.80;99.90;;;;;;6132720;23;20009;-87
2023/09/01 07:00:05;;;;;;;15.63;8.38;;;13.80;99.90;;;;;;6158516;23;20013;-87
2023/09/01 07:02:31;;;;;;;16.67;8.38;;;13.90;99.90;;;;;;6158283;23;20013;-86
2023/09/01 07:04:57;;;;;;;18.23;16.20;;;13.90;99.90;;;;;;6158447;23;20073;-87
2023/09/01 07:07:22;;;;;;;16.25;8.60;;;14.10;99.90;;;;;;6158673;23;20013;-87
2023/09/01 07:09:48;;;;;;;15.77;8.43;;;14.10;99.90;;;;;;6133471;23;20522;-87
2023/09/01 07:12:15;;;;;;;18.23;16.25;;;14.20;99.90;;;;;;6158862;23;20088;-87
2023/09/01 07:14:40;;;;;;;13.50;7.70;;;14.30;99.90;;;;;;6158121;23;20009;-86
2023/09/01 07:17:06;;;;;;;17.55;10.35;;;14.30;99.90;;;;;;6133674;23;20009;-86
2023/09/01 07:19:31;;;;;;;15.93;10.15;;;14.40;99.90;;;;;;6157871;23;20060;-86
2023/09/01 07:21:57;;;;;;;20.73;17.92;;;14.40;99.90;;;;;;6158361;23;20009;-87
2023/09/01 07:24:22;;;;;;;16.58;11.30;;;14.60;99.90;;;;;;6158025;23;20517;-86
2023/09/01 07:26:48;;;;;;;17.25;10.95;;;14.60;99.90;;;;;;6158590;23;20020;-87
2023/09/01 07:29:14;;;;;;;15.60;10.13;;;14.70;99.90;;;;;;6158367;23;20019;-86
2023/09/01 07:31:39;;;;;;;19.95;17.88;;;14.70;99.90;;;;;;6158270;23;20005;-86
2023/09/01 07:34:05;;;;;;;16.20;10.25;;;14.80;99.90;;;;;;6157080;23;20015;-86
2023/09/01 07:36:30;;;;;;;21.35;19.15;;;14.90;99.90;;;;;;6158134;23;20092;-86
2023/09/01 07:38:56;;;;;;;22.38;19.50;;;15.00;99.90;;;;;;6157436;23;20009;-86
2023/09/01 07:41:22;;;;;;;20.23;11.07;;;15.00;99.90;;;;;;6133704;23;20005;-87
2023/09/01 07:43:49;;;;;;;20.52;18.23;;;15.10;99.90;;;;;;6158262;23;20009;-86
2023/09/01 07:46:15;;;;;;;21.00;18.10;;;15.20;99.90;;;;;;6158363;23;20020;-86
2023/09/01 07:48:40;;;;;;;16.80;8.38;;;15.30;99.90;;;;;;6133814;23;20009;-87
2023/09/01 07:51:06;;;;;;;16.90;11.00;;;15.30;99.90;;;;;;6158142;23;20079;-87
2023/09/01 07:53:32;;;;;;;19.95;17.65;;;15.30;99.90;;;;;;6158109;23;20016;-87
2023/09/01 07:55:58;;;;;;;16.13;9.52;;;15.40;99.90;;;;;;6158719;23;20044;-87
2023/09/01 07:58:23;;;;;;;21.45;18.67;;;15.40;99.90;;;;;;6133235;23;20040;-87
2023/09/01 08:00:49;;;;;;;20.05;16.85;;;15.50;99.90;;;;;;6132851;23;20097;-87
2023/09/01 08:03:16;;;;;;;14.75;10.05;;;15.60;99.90;;;;;;6156827;23;20005;-87
2023/09/01 08:05:42;;;;;;;18.02;10.45;;;15.60;99.90;;;;;;6131971;23;20013;-87
2023/09/01 08:08:08;;;;;;;23.33;18.40;;;15.60;99.90;;;;;;6157427;23;20024;-87
2023/09/01 08:10:34;;;;;;;17.02;11.38;;;15.70;99.90;;;;;;6156934;23;20095;-88
2023/09/01 08:13:00;;;;;;;16.23;10.07;;;15.80;99.90;;;;;;6157802;23;20017;-88
2023/09/01 08:15:25;;;;;;;21.38;17.83;;;15.80;99.90;;;;;;6157516;23;20024;-88
2023/09/01 08:17:53;;;;;;;23.73;19.30;;;15.90;99.90;;;;;;6156556;23;20013;-87
2023/09/01 08:20:18;;;;;;;24.88;20.38;;;16.10;99.90;;;;;;6157670;23;20451;-88
2023/09/01 08:22:47;;;;;;;23.40;20.27;;;16.20;99.90;;;;;;6157457;23;20025;-87
2023/09/01 08:25:13;;;;;;;22.65;11.57;;;16.30;99.90;;;;;;6131584;23;20021;-88
2023/09/01 08:27:39;;;;;;;18.15;9.90;;;16.30;99.90;;;;;;6183448;23;20009;-87
2023/09/01 08:30:06;;;;;;;22.63;18.42;;;16.30;99.90;;;;;;6157040;23;20402;-88
2023/09/01 08:32:33;;;;;;;19.15;11.85;;;16.40;99.90;;;;;;6132781;23;20013;-87
2023/09/01 08:35:00;;;;;;;24.42;19.30;;;16.40;99.90;;;;;;6132535;23;20009;-87
2023/09/01 08:37:25;;;;;;;20.92;18.42;;;16.50;99.90;;;;;;6157364;23;20407;-88
2023/09/01 08:39:51;;;;;;;19.85;11.15;;;16.60;99.90;;;;;;6157411;23;20013;-88
2023/09/01 08:42:19;;;;;;;21.55;18.02;;;16.60;99.90;;;;;;6157591;23;20068;-88
2023/09/01 08:44:45;;;;;;;22.30;17.33;;;16.60;99.90;;;;;;6157544;23;20024;-88
2023/09/01 08:47:12;;;;;;;20.73;12.90;;;16.70;99.90;;;;;;6157644;23;20035;-88
2023/09/01 08:49:38;;;;;;;24.23;12.32;;;16.70;99.90;;;;;;6157177;23;20013;-88
2023/09/01 08:52:04;;;;;;;22.13;17.10;;;16.70;99.90;;;;;;6157652;23;20028;-88
2023/09/01 08:54:30;;;;;;;23.30;18.00;;;16.80;99.90;;;;;;6132933;23;20625;-88
2023/09/01 08:56:56;;;;;;;20.45;16.80;;;16.90;99.90;;;;;;6157878;23;20008;-89
2023/09/01 08:59:24;;;;;;;23.35;17.13;;;16.90;99.90;;;;;;6157635;23;20338;-89
2023/09/01 09:01:49;;;;;;;21.98;18.38;;;17.00;99.90;;;;;;6133374;23;20013;-88
2023/09/01 09:04:15;;;;;;;22.60;17.60;;;17.00;99.90;;;;;;6156742;23;20017;-89
2023/09/01 09:06:42;;;;;;;20.10;10.80;;;17.10;99.90;;;;;;6157638;23;20477;-89
2023/09/01 09:09:13;;;;;;;20.08;16.92;;;17.10;99.90;;;;;;6157206;23;20482;-89
2023/09/01 09:11:53;;;;;;;23.57;17.27;;;17.20;99.90;;;;;;6156439;23;20063;-89
2023/09/01 09:14:18;;;;;;;21.60;17.02;;;17.30;99.90;;;;;;6157405;23;20247;-89
2023/09/01 09:16:54;;;;;;;21.25;16.95;;;17.30;99.90;;;;;;6157086;23;20087;-89
2023/09/01 09:19:21;;;;;;;22.27;16.65;;;17.40;99.90;;;;;;6164957;23;20013;-88
2023/09/01 09:21:47;;;;;;;20.88;16.35;;;17.50;99.90;;;;;;6135363;23;20017;-89
2023/09/01 09:24:13;;;;;;;19.90;12.00;;;17.60;99.90;;;;;;6159008;23;20458;-89
2023/09/01 09:26:38;;;;;;;19.05;14.60;;;17.60;99.90;;;;;;6134114;23;20020;-89
2023/09/01 09:29:11;;;;;;;19.58;14.98;;;17.60;99.90;;;;;;6157870;23;20459;-89
2023/09/01 09:31:39;;;;;;;17.48;12.98;;;17.70;99.90;;;;;;6133573;23;20151;-89
2023/09/01 09:34:24;;;;;;;18.50;11.68;;;17.80;99.90;;;;;;6157952;23;20347;-88
2023/09/01 09:36:52;;;;;;;20.42;13.80;;;17.80;99.90;;;;;;6157660;23;20021;-89
2023/09/01 09:39:25;;;;;;;21.00;13.70;;;17.90;99.90;;;;;;6157066;23;20013;-88
2023/09/01 09:41:52;;;;;;;21.73;12.80;;;18.00;99.90;;;;;;6132172;23;20164;-88
2023/09/01 09:44:22;;;;;;;17.20;11.25;;;18.00;99.90;;;;;;6184412;23;20013;-89
2023/09/01 09:46:49;;;;;;;17.67;10.48;;;18.00;99.90;;;;;;6133087;23;20040;-89
2023/09/01 09:49:15;;;;;;;18.75;11.40;;;18.10;99.90;;;;;;6132672;23;20437;-89
2023/09/01 09:51:42;;;;;;;18.98;12.20;;;18.20;99.90;;;;;;6157263;23;20455;-89
2023/09/01 09:54:11;;;;;;;16.17;11.82;;;18.20;99.90;;;;;;6157241;23;20020;-89
2023/09/01 09:56:40;;;;;;;17.25;11.32;;;18.30;99.90;;;;;;6157696;23;20028;-89
2023/09/01 09:59:08;;;;;;;17.90;11.57;;;18.30;99.90;;;;;;6157057;23;20016;-90
2023/09/01 10:01:39;;;;;;;17.88;11.20;;;18.30;99.90;;;;;;6132812;23;20010;-89
2023/09/01 10:04:06;;;;;;;17.88;9.25;;;18.30;99.90;;;;;;6132780;23;20044;-89
2023/09/01 10:06:34;;;;;;;15.30;9.15;;;18.40;99.90;;;;;;6156623;23;20438;-89
2023/09/01 10:09:04;;;;;;;16.77;7.22;;;18.40;99.90;;;;;;6157409;23;20052;-89
2023/09/01 10:11:30;;;;;;;16.23;10.20;;;18.40;99.90;;;;;;6132336;23;20017;-89
2023/09/01 10:13:56;;;;;;;18.02;10.43;;;18.40;99.90;;;;;;6132768;23;20013;-89
2023/09/01 10:16:23;;;;;;;15.77;10.05;;;18.40;99.90;;;;;;6157118;23;20483;-88
2023/09/01 10:18:49;;;;;;;17.55;9.93;;;18.40;99.90;;;;;;6132412;23;20064;-89
2023/09/01 10:21:16;;;;;;;17.48;9.93;;;18.40;99.90;;;;;;6157427;23;20068;-88
2023/09/01 10:23:43;;;;;;;14.18;7.65;;;18.50;99.90;;;;;;6132898;23;20053;-88
2023/09/01 10:26:17;;;;;;;16.58;10.07;;;18.40;99.90;;;;;;6157240;23;20020;-89
2023/09/01 10:29:01;;;;;;;15.80;10.27;;;18.50;99.90;;;;;;6157988;23;20071;-89
2023/09/01 10:31:34;;;;;;;15.68;10.23;;;18.50;99.90;;;;;;6159375;23;20519;-89
2023/09/01 10:34:02;;;;;;;15.07;9.55;;;18.50;99.90;;;;;;6159033;23;20350;-88
2023/09/01 10:36:28;;;;;;;16.20;9.65;;;18.50;99.90;;;;;;6134480;23;20017;-90
2023/09/01 10:38:53;;;;;;;17.23;10.82;;;18.50;99.90;;;;;;6134214;23;20028;-88
2023/09/01 10:41:48;;;;;;;15.80;10.13;;;18.50;99.90;;;;;;6159251;23;20008;-89
2023/09/01 10:44:14;;;;;;;16.73;10.48;;;18.50;99.90;;;;;;6159092;23;20067;-89
2023/09/01 10:46:39;;;;;;;15.77;10.30;;;18.50;99.90;;;;;;6158909;23;20017;-88
2023/09/01 10:49:07;;;;;;;15.70;10.65;;;18.50;99.90;;;;;;6158318;23;20481;-89
2023/09/01 10:51:37;;;;;;;16.50;10.02;;;18.50;99.90;;;;;;6158370;23;20704;-88
2023/09/01 10:54:23;;;;;;;17.45;10.05;;;18.50;99.90;;;;;;6158755;23;20019;-89
2023/09/01 10:56:59;;;;;;;15.48;10.43;;;18.50;99.90;;;;;;6118972;23;20020;-89
2023/09/01 10:59:35;;;;;;;16.83;10.18;;;18.50;99.90;;;;;;6158976;23;20009;-89
2023/09/01 11:02:18;;;;;;;17.45;10.85;;;18.50;99.90;;;;;;6134280;23;20068;-89
2023/09/01 11:04:44;;;;;;;17.67;10.25;;;18.60;99.90;;;;;;6134530;23;20342;-89
2023/09/01 11:07:10;;;;;;;18.33;10.57;;;18.50;99.90;;;;;;6158956;23;20021;-90
2023/09/01 11:09:36;;;;;;;19.73;10.70;;;18.60;99.90;;;;;;6158706;23;20013;-89
2023/09/01 11:12:09;;;;;;;15.18;9.80;;;18.50;99.90;;;;;;6158286;23;20017;-88
2023/09/01 11:14:36;;;;;;;15.75;10.05;;;18.60;99.90;;;;;;6158812;23;20351;-89
2023/09/01 11:17:03;;;;;;;19.10;10.48;;;18.60;99.90;;;;;;6134192;23;20355;-89
2023/09/01 11:19:46;;;;;;;15.15;9.50;;;18.60;99.90;;;;;;6158620;23;20051;-89
2023/09/01 11:22:13;;;;;;;19.05;9.82;;;18.60;99.90;;;;;;6158654;23;20017;-89
2023/09/01 11:24:38;;;;;;;14.75;10.13;;;18.60;99.90;;;;;;6134177;23;20451;-89
2023/09/01 11:27:04;;;;;;;14.73;9.45;;;18.70;99.90;;;;;;6158512;23;20013;-88
2023/09/01 11:29:30;;;;;;;14.88;10.05;;;18.70;99.90;;;;;;6158360;23;20005;-89
2023/09/01 11:31:56;;;;;;;14.93;9.55;;;18.70;99.90;;;;;;6158439;23;20446;-89
2023/09/01 11:34:21;;;;;;;16.30;9.82;;;18.70;99.90;;;;;;6158377;23;20020;-89
2023/09/01 11:36:51;;;;;;;14.23;9.98;;;18.70;99.90;;;;;;6133819;23;20031;-89
2023/09/01 11:39:18;;;;;;;15.52;9.07;;;18.70;99.90;;;;;;6158176;23;20463;-88
2023/09/01 11:41:45;;;;;;;12.93;7.28;;;18.70;99.90;;;;;;6133647;23;20063;-87
2023/09/01 11:44:11;;;;;;;14.43;9.18;;;18.70;99.90;;;;;;6158547;23;20013;-88
2023/09/01 11:46:37;;;;;;;14.07;8.85;;;18.80;99.90;;;;;;6158179;23;20041;-88
2023/09/01 11:49:04;;;;;;;18.23;9.63;;;18.80;99.90;;;;;;6157846;23;20009;-88
2023/09/01 11:51:42;;;;;;;14.73;9.35;;;18.80;99.90;;;;;;6158510;23;20093;-87
2023/09/01 11:54:08;;;;;;;16.00;9.73;;;18.90;99.90;;;;;;6158662;23;20016;-88
2023/09/01 11:56:34;;;;;;;15.25;9.80;;;18.90;99.90;;;;;;6133875;23;20028;-88
2023/09/01 11:59:00;;;;;;;16.90;9.45;;;18.90;99.90;;;;;;6157508;23;20017;-88
2023/09/01 12:01:35;;;;;;;17.15;8.82;;;18.90;99.90;;;;;;6157727;23;20020;-88
2023/09/01 12:04:09;;;;;;;16.05;8.98;;;18.90;99.90;;;;;;6158817;23;20036;-88
2023/09/01 12:06:50;;;;;;;15.30;8.43;;;19.00;99.90;;;;;;6158341;23;20013;-88
2023/09/01 12:09:20;;;;;;;14.65;8.20;;;19.00;99.90;;;;;;6156919;23;20071;-88
2023/09/01 12:11:57;;;;;;;13.57;8.02;;;19.10;99.90;;;;;;6157576;23;20481;-88
2023/09/01 12:14:25;;;;;;;15.18;8.82;;;19.20;99.90;;;;;;6133074;23;20013;-88
2023/09/01 12:16:53;;;;;;;13.85;8.45;;;19.20;99.90;;;;;;6157098;23;20096;-88
2023/09/01 12:19:24;;;;;;;13.60;8.45;;;19.40;99.90;;;;;;6132104;23;20347;-88
2023/09/01 12:21:55;;;;;;;14.43;8.23;;;19.50;99.90;;;;;;6156810;23;20009;-88
2023/09/01 12:24:26;;;;;;;13.55;8.23;;;19.60;99.90;;;;;;6133129;23;20387;-88
2023/09/01 12:26:51;;;;;;;16.45;8.38;;;19.60;99.90;;;;;;6132503;23;20092;-88
2023/09/01 12:29:18;;;;;;;14.13;8.13;;;19.70;99.90;;;;;;6133788;23;20041;-88
2023/09/01 12:31:43;;;;;;;13.70;7.78;;;19.70;99.90;;;;;;6133646;23;20013;-88
2023/09/01 12:34:09;;;;;;;14.13;7.95;;;19.70;99.90;;;;;;6134100;23;20005;-89
2023/09/01 12:36:35;;;;;;;15.43;7.75;;;19.70;99.90;;;;;;6133996;23;20459;-89
2023/09/01 12:39:00;;;;;;;14.18;7.90;;;19.80;99.90;;;;;;6133432;23;20358;-89